Time;durP1;ratioP1;P1;durP2;ratioP2;P2;SDS_P1;SDS_P2;PMS_P1;PMS_P2;Temp;Humidity;BMP_temperature;BMP_pressure;BME280_temperature;BME280_humidity;BME280_pressure;Samples;Min_cycle;Max_cycle;Signal;HPM_P1;HPM_P2
2021/12/12 00:01:38;;;;;;;11.27;7.30;;;;;;;7.42;92.00;93772.63;5009274;28;20105;-57
2021/12/12 00:04:14;;;;;;;11.50;6.55;;;;;;;7.20;89.60;93760.53;5009102;28;20034;-60
2021/12/12 00:06:55;;;;;;;8.60;5.15;;;;;;;7.47;90.12;93773.13;5009457;28;20041;-62
2021/12/12 00:09:27;;;;;;;9.27;5.70;;;;;;;7.28;90.98;93765.09;5008496;28;20648;-62
2021/12/12 00:11:54;;;;;;;10.27;6.78;;;;;;;6.97;91.35;93760.38;5008644;28;20026;-62
2021/12/12 00:14:27;;;;;;;9.52;5.80;;;;;;;7.32;89.32;93830.63;5008532;28;20026;-69
2021/12/12 00:16:54;;;;;;;9.40;5.50;;;;;;;7.12;89.14;93819.19;5008746;28;20512;-60
2021/12/12 00:19:21;;;;;;;9.40;5.22;;;;;;;7.21;89.25;93821.09;5008644;28;20477;-63
2021/12/12 00:21:51;;;;;;;9.43;5.60;;;;;;;6.99;90.48;93803.84;5008453;28;20475;-60
2021/12/12 00:24:17;;;;;;;8.50;5.70;;;;;;;6.87;90.70;93795.25;5008048;28;20029;-59
2021/12/12 00:26:46;;;;;;;11.73;7.60;;;;;;;7.07;91.03;93816.13;5008412;28;20469;-61
2021/12/12 00:29:14;;;;;;;9.38;6.30;;;;;;;7.16;89.79;93847.06;5008244;28;20033;-61
2021/12/12 00:31:40;;;;;;;8.95;5.85;;;;;;;7.16;90.68;93841.13;5008276;28;20452;-58
2021/12/12 00:34:06;;;;;;;7.95;5.47;;;;;;;7.08;91.22;93851.88;5008107;28;20037;-64
2021/12/12 00:36:34;;;;;;;8.25;5.75;;;;;;;7.04;91.35;93854.78;5008650;28;20022;-66
2021/12/12 00:39:06;;;;;;;8.43;5.40;;;;;;;6.96;91.09;93840.72;5008414;28;20081;-66
2021/12/12 00:41:41;;;;;;;10.13;6.05;;;;;;;7.07;91.03;93870.78;5008627;28;20416;-61
2021/12/12 00:44:08;;;;;;;7.60;5.13;;;;;;;6.59;90.27;93804.78;5008614;28;20033;-61
2021/12/12 00:46:34;;;;;;;8.70;5.50;;;;;;;6.99;89.63;93871.28;5007651;28;20030;-59
2021/12/12 00:49:00;;;;;;;8.32;5.43;;;;;;;6.79;90.02;93852.13;5008307;28;20040;-60
2021/12/12 00:51:32;;;;;;;8.25;5.40;;;;;;;6.85;90.19;93870.56;5008211;28;20034;-59
2021/12/12 00:53:58;;;;;;;8.38;5.38;;;;;;;6.84;89.71;93876.59;5008404;28;20456;-59
2021/12/12 00:56:24;;;;;;;10.80;7.38;;;;;;;6.87;90.37;93896.91;5008347;28;20129;-59
2021/12/12 00:58:50;;;;;;;9.85;5.63;;;;;;;6.90;86.95;93871.06;5007988;28;20517;-58
2021/12/12 01:01:23;;;;;;;8.07;3.80;;;;;;;7.15;84.74;93890.78;5008188;28;20033;-61
2021/12/12 01:04:03;;;;;;;2.45;1.60;;;;;;;7.35;81.22;93882.53;5007776;28;20030;-60
2021/12/12 01:06:28;;;;;;;1.27;1.02;;;;;;;7.44;79.71;93886.19;5008239;28;20038;-63
2021/12/12 01:08:58;;;;;;;1.45;0.65;;;;;;;7.42;79.99;93874.44;5008085;28;20046;-62
2021/12/12 01:11:30;;;;;;;1.25;0.70;;;;;;;7.43;77.64;93866.63;5007510;28;20083;-64
2021/12/12 01:13:56;;;;;;;3.10;1.30;;;;;;;6.89;78.74;93802.84;5007411;28;20026;-60
2021/12/12 01:16:27;;;;;;;1.17;0.80;;;;;;;7.40;78.57;93876.28;5008076;28;20068;-60
2021/12/12 01:19:05;;;;;;;0.57;0.57;;;;;;;6.89;77.39;93805.41;5008153;28;20022;-59
2021/12/12 01:21:36;;;;;;;2.13;1.10;;;;;;;7.19;77.67;93843.47;5008447;28;20033;-61
2021/12/12 01:24:19;;;;;;;2.63;1.25;;;;;;;7.45;76.67;93895.53;5011023;28;20037;-60
2021/12/12 01:26:47;;;;;;;2.00;1.08;;;;;;;7.48;76.16;93895.34;4992088;28;20121;-60
2021/12/12 01:29:14;;;;;;;1.50;0.90;;;;;;;7.36;77.22;93891.88;4991959;28;20034;-60
2021/12/12 01:31:46;;;;;;;1.67;1.00;;;;;;;7.27;77.68;93884.00;4992079;28;20022;-60
2021/12/12 01:34:15;;;;;;;1.90;1.10;;;;;;;7.24;77.78;93902.94;4991916;28;20023;-58
2021/12/12 01:37:33;;;;;;;1.60;1.10;;;;;;;7.15;79.17;93896.72;5009171;28;20029;-59
2021/12/12 01:40:10;;;;;;;4.22;1.92;;;;;;;6.97;81.07;93869.75;5010453;28;20077;-63
2021/12/12 01:42:45;;;;;;;2.63;2.08;;;;;;;6.60;79.96;93820.97;5011858;28;20034;-59
2021/12/12 01:45:21;;;;;;;1.30;0.98;;;;;;;7.17;77.02;93892.28;5011496;28;20525;-61
2021/12/12 01:48:03;;;;;;;2.53;1.20;;;;;;;7.31;75.73;93898.22;5011290;28;20092;-60
2021/12/12 01:50:42;;;;;;;3.58;1.80;;;;;;;7.22;76.17;93884.28;5011201;28;20029;-60
2021/12/12 01:53:12;;;;;;;2.35;1.30;;;;;;;7.40;74.97;93907.88;5011662;28;20032;-61
2021/12/12 01:55:49;;;;;;;2.10;1.52;;;;;;;7.48;74.52;93927.88;5011243;28;20164;-60
2021/12/12 01:58:21;;;;;;;4.57;3.03;;;;;;;7.32;77.83;93934.03;5010361;28;20048;-58
2021/12/12 02:00:55;;;;;;;4.30;2.88;;;;;;;7.12;78.53;93939.69;5010705;28;20029;-59
2021/12/12 02:03:24;;;;;;;5.55;3.00;;;;;;;6.83;79.69;93932.16;5011262;28;20033;-59
2021/12/12 02:05:51;;;;;;;5.72;3.85;;;;;;;6.81;81.12;93945.06;5010831;28;20870;-61
2021/12/12 02:08:18;;;;;;;5.13;3.20;;;;;;;6.73;79.64;93937.06;5010329;28;20034;-59
2021/12/12 02:10:50;;;;;;;3.80;2.10;;;;;;;6.49;79.23;93910.50;5010573;28;20092;-61
2021/12/12 02:13:18;;;;;;;5.38;3.75;;;;;;;6.60;80.30;93926.78;5010851;28;20030;-59
2021/12/12 02:15:47;;;;;;;4.75;3.38;;;;;;;6.65;81.44;93935.94;5010900;28;20421;-62
2021/12/12 02:18:16;;;;;;;4.28;2.83;;;;;;;6.54;81.30;93908.44;5010383;28;20121;-62
2021/12/12 02:21:04;;;;;;;4.50;2.92;;;;;;;6.67;81.20;93919.53;4993621;28;20540;-61
2021/12/12 02:23:46;;;;;;;4.28;2.63;;;;;;;6.74;80.70;93918.22;5010255;28;20022;-63
2021/12/12 02:37:10;;;;;;;5.13;3.22;;;;;;;6.33;80.11;93961.84;5010531;28;20087;-64
2021/12/12 02:39:38;;;;;;;4.43;3.20;;;;;;;6.25;80.19;93964.91;5009953;28;20460;-59
2021/12/12 02:42:07;;;;;;;4.03;2.47;;;;;;;6.32;77.48;93939.75;5010134;28;20104;-60
2021/12/12 02:44:37;;;;;;;4.55;2.88;;;;;;;6.21;78.30;93963.47;5010276;28;20167;-60
2021/12/12 02:47:11;;;;;;;4.55;2.85;;;;;;;6.39;78.26;93987.09;5009593;28;20088;-62
2021/12/12 02:49:54;;;;;;;3.53;2.30;;;;;;;6.33;79.24;93982.34;5009604;28;20022;-59
2021/12/12 02:52:27;;;;;;;3.45;2.40;;;;;;;5.98;79.75;93955.47;5010214;28;20025;-63
2021/12/12 02:54:53;;;;;;;4.18;2.33;;;;;;;6.01;79.93;93986.00;5010504;28;20137;-65
2021/12/12 02:57:19;;;;;;;4.68;2.47;;;;;;;5.66;80.25;93960.81;5009153;28;20115;-64
2021/12/12 02:59:50;;;;;;;4.07;2.50;;;;;;;5.55;80.16;93949.59;5009689;28;20030;-65
2021/12/12 03:02:25;;;;;;;3.60;2.50;;;;;;;5.67;80.81;93992.31;5009688;28;20034;-59
2021/12/12 03:04:52;;;;;;;5.15;2.50;;;;;;;5.51;81.50;93979.63;5010061;28;20026;-62
2021/12/12 03:07:18;;;;;;;7.07;4.43;;;;;;;5.47;81.57;93967.94;5009711;28;20474;-66
2021/12/12 03:09:54;;;;;;;3.75;2.50;;;;;;;5.63;81.57;93998.53;5009910;28;20065;-59
2021/12/12 03:12:31;;;;;;;5.78;2.90;;;;;;;5.65;80.85;93997.50;5009205;28;20045;-63
2021/12/12 03:14:59;;;;;;;4.72;2.50;;;;;;;5.43;79.41;93949.41;5009717;28;20026;-61
2021/12/12 03:17:26;;;;;;;4.82;2.70;;;;;;;5.52;80.55;94017.06;5007986;28;20041;-59
2021/12/12 03:19:58;;;;;;;4.18;2.22;;;;;;;5.52;80.76;94017.88;5009641;28;20034;-59
2021/12/12 03:22:25;;;;;;;3.90;2.47;;;;;;;5.38;81.29;94012.78;5009119;28;20034;-58
2021/12/12 03:24:51;;;;;;;6.70;2.90;;;;;;;5.31;81.71;94014.88;5009531;28;20022;-60
2021/12/12 03:27:17;;;;;;;4.00;2.42;;;;;;;5.46;81.35;94025.94;5009556;28;20033;-60
2021/12/12 03:29:44;;;;;;;4.25;2.60;;;;;;;5.49;80.37;94032.59;5009313;28;20081;-59
2021/12/12 03:32:14;;;;;;;7.15;3.63;;;;;;;5.56;80.61;94039.00;5009377;28;20068;-58
2021/12/12 03:34:47;;;;;;;3.85;2.50;;;;;;;5.53;81.13;94050.22;5009182;28;20087;-59
2021/12/12 03:37:16;;;;;;;3.75;2.42;;;;;;;5.53;81.23;94055.34;5009217;28;20049;-63
2021/12/12 03:39:46;;;;;;;4.10;2.63;;;;;;;5.60;80.31;94081.38;5008977;28;20081;-62
2021/12/12 03:42:22;;;;;;;3.55;2.30;;;;;;;5.46;80.11;94056.63;5009354;28;20530;-65
2021/12/12 03:44:47;;;;;;;3.42;2.45;;;;;;;5.62;79.51;94086.41;5008530;28;20030;-62
2021/12/12 03:47:28;;;;;;;4.13;2.83;;;;;;;5.59;79.60;94082.31;5008580;28;20018;-64
2021/12/12 03:49:55;;;;;;;4.78;2.58;;;;;;;5.74;78.43;94089.97;5008461;28;20052;-59
2021/12/12 03:52:22;;;;;;;3.67;2.42;;;;;;;5.57;78.97;94091.78;5008846;28;20029;-59
2021/12/12 03:54:49;;;;;;;3.70;2.65;;;;;;;5.61;78.91;94082.22;5008953;28;20033;-61
2021/12/12 03:57:17;;;;;;;4.90;2.67;;;;;;;5.62;79.18;94117.91;5008956;28;20045;-58
2021/12/12 03:59:42;;;;;;;4.03;2.30;;;;;;;5.84;78.22;94104.69;5008578;28;20663;-60
2021/12/12 04:02:08;;;;;;;3.63;2.80;;;;;;;5.75;78.30;94097.53;5008672;28;20116;-60
2021/12/12 04:04:39;;;;;;;6.25;3.33;;;;;;;5.69;78.85;94105.59;5009076;28;20029;-60
2021/12/12 04:07:11;;;;;;;3.97;2.60;;;;;;;5.51;78.84;94079.38;5008887;28;20029;-60
2021/12/12 04:09:38;;;;;;;3.13;2.40;;;;;;;5.62;78.76;94129.88;5008996;28;20361;-61
2021/12/12 04:12:07;;;;;;;3.95;2.70;;;;;;;5.71;78.17;94125.06;5008186;28;20030;-60
2021/12/12 04:14:33;;;;;;;4.68;2.55;;;;;;;5.77;76.71;94136.69;5008917;28;20026;-57
2021/12/12 04:17:04;;;;;;;3.80;2.53;;;;;;;5.69;77.21;94137.13;5008796;28;20083;-59
2021/12/12 04:19:30;;;;;;;3.78;2.67;;;;;;;5.60;77.43;94147.88;5008786;28;20022;-57
2021/12/12 04:21:55;;;;;;;3.92;2.30;;;;;;;5.67;76.09;94138.94;5008216;28;20029;-59
2021/12/12 04:24:28;;;;;;;3.95;2.20;;;;;;;5.66;75.90;94152.63;5008177;28;20055;-59
2021/12/12 04:26:54;;;;;;;2.35;1.80;;;;;;;5.44;75.81;94119.78;5008664;28;20030;-59
2021/12/12 04:29:32;;;;;;;3.65;2.47;;;;;;;5.56;77.09;94171.13;5008713;28;20041;-58
2021/12/12 04:32:04;;;;;;;4.38;2.40;;;;;;;5.57;75.05;94176.16;5008396;28;20022;-58
2021/12/12 04:34:33;;;;;;;3.30;2.00;;;;;;;5.64;74.33;94187.72;5008070;28;20073;-58
2021/12/12 04:37:04;;;;;;;4.07;2.40;;;;;;;5.35;75.08;94148.44;5008509;28;20030;-59
2021/12/12 04:39:35;;;;;;;5.57;2.50;;;;;;;5.64;73.21;94166.41;5008682;28;20046;-60
2021/12/12 04:42:17;;;;;;;4.05;2.50;;;;;;;5.33;73.38;94151.09;5008683;28;20030;-64
2021/12/12 04:44:50;;;;;;;3.00;1.77;;;;;;;5.10;73.89;94195.81;5007940;28;20430;-59
2021/12/12 04:50:30;;;;;;;2.30;1.60;;;;;;;4.74;74.55;94198.63;5008551;28;20484;-67
2021/12/12 04:53:11;;;;;;;1.85;1.52;;;;;;;4.83;73.90;94189.66;5006849;28;20030;-59
2021/12/12 04:55:41;;;;;;;2.03;1.42;;;;;;;4.70;73.13;94218.38;5008850;28;20385;-59
2021/12/12 04:58:12;;;;;;;2.75;1.50;;;;;;;4.49;74.06;94219.50;5012079;28;20129;-59
2021/12/12 05:00:46;;;;;;;3.88;1.90;;;;;;;4.51;74.17;94190.47;5012271;28;20065;-58
2021/12/12 05:03:23;;;;;;;2.30;1.77;;;;;;;4.76;72.74;94214.69;5012622;28;20084;-63
2021/12/12 05:06:15;;;;;;;3.20;1.70;;;;;;;4.52;71.92;94179.31;5011677;28;20033;-64
2021/12/12 05:08:52;;;;;;;3.40;2.17;;;;;;;4.74;71.99;94230.09;5012295;28;20458;-62
2021/12/12 05:11:38;;;;;;;3.30;1.95;;;;;;;4.67;72.53;94238.16;5011877;28;20026;-61
2021/12/12 05:14:21;;;;;;;3.67;2.40;;;;;;;4.61;72.44;94244.41;5012138;28;20033;-63
2021/12/12 05:16:51;;;;;;;2.95;1.98;;;;;;;4.73;72.81;94245.50;5011875;28;20105;-65
2021/12/12 05:19:24;;;;;;;3.67;1.70;;;;;;;4.69;72.27;94254.22;5012564;28;20052;-59
2021/12/12 05:21:55;;;;;;;4.85;2.40;;;;;;;4.31;72.18;94196.59;5012179;28;20504;-64
2021/12/12 05:24:25;;;;;;;3.65;2.03;;;;;;;4.27;72.38;94242.78;5011637;28;20018;-59
2021/12/12 05:26:55;;;;;;;3.90;2.08;;;;;;;4.37;73.07;94272.03;5010058;28;20064;-59
2021/12/12 05:29:32;;;;;;;3.15;1.60;;;;;;;4.24;72.91;94272.63;5011900;28;20084;-60
2021/12/12 05:32:00;;;;;;;2.47;1.50;;;;;;;4.29;73.69;94277.50;5011934;28;20022;-60
2021/12/12 05:34:32;;;;;;;3.67;2.05;;;;;;;4.09;73.53;94278.50;5011480;28;20038;-58
2021/12/12 05:37:00;;;;;;;2.40;1.48;;;;;;;4.12;73.67;94285.19;5011192;28;20033;-59
2021/12/12 05:39:27;;;;;;;1.95;1.48;;;;;;;3.90;74.10;94268.38;5011998;28;20045;-59
2021/12/12 05:41:55;;;;;;;3.88;1.90;;;;;;;4.05;73.73;94285.50;5011929;28;20046;-60
2021/12/12 05:44:22;;;;;;;3.40;1.83;;;;;;;4.07;73.33;94290.53;5011763;28;20014;-59
2021/12/12 05:46:48;;;;;;;2.75;1.77;;;;;;;3.91;73.27;94276.88;5010967;28;20048;-62
2021/12/12 05:49:14;;;;;;;2.47;1.70;;;;;;;3.92;72.70;94289.56;5011282;28;20064;-63
2021/12/12 05:51:39;;;;;;;3.25;1.90;;;;;;;3.90;73.57;94308.38;5011398;28;20400;-63
2021/12/12 05:54:06;;;;;;;3.00;1.98;;;;;;;3.95;72.82;94322.56;5011390;28;20032;-63
2021/12/12 05:56:35;;;;;;;2.08;1.45;;;;;;;3.95;72.00;94342.13;5011205;28;20049;-61
2021/12/12 05:59:02;;;;;;;2.20;1.40;;;;;;;3.88;72.17;94351.00;5010837;28;20040;-62
2021/12/12 06:01:29;;;;;;;3.22;1.88;;;;;;;3.89;71.68;94358.56;5011096;28;20022;-60
2021/12/12 06:03:55;;;;;;;2.95;1.83;;;;;;;3.76;71.85;94357.50;5011166;28;20038;-59
2021/12/12 06:06:27;;;;;;;3.00;1.63;;;;;;;3.66;72.03;94347.72;5010432;28;20065;-62
2021/12/12 06:08:59;;;;;;;2.55;1.88;;;;;;;3.58;72.58;94366.84;5008707;28;20057;-59
2021/12/12 06:11:27;;;;;;;2.25;1.60;;;;;;;3.58;72.79;94364.28;5010704;28;20528;-60
2021/12/12 06:13:54;;;;;;;1.85;1.42;;;;;;;2.89;73.34;94258.69;5010993;28;20029;-61
2021/12/12 06:16:21;;;;;;;2.75;1.80;;;;;;;3.65;73.73;94352.88;5010585;28;20026;-60
2021/12/12 06:19:00;;;;;;;3.70;1.80;;;;;;;3.48;74.02;94362.13;5010813;28;20029;-61
2021/12/12 06:21:26;;;;;;;1.98;1.35;;;;;;;3.44;74.31;94353.00;5009673;28;20042;-65
2021/12/12 06:23:53;;;;;;;2.35;1.40;;;;;;;3.39;74.71;94389.78;5009014;28;20124;-61
2021/12/12 06:26:19;;;;;;;1.23;1.00;;;;;;;3.31;73.84;94372.25;5010654;28;20133;-61
2021/12/12 06:28:46;;;;;;;1.88;1.52;;;;;;;3.34;73.86;94395.06;5010647;28;20485;-69
2021/12/12 06:31:11;;;;;;;2.35;0.90;;;;;;;3.25;75.03;94381.03;5010765;28;20111;-62
2021/12/12 06:33:39;;;;;;;1.80;1.42;;;;;;;2.92;77.02;94385.88;5010583;28;20049;-65
2021/12/12 06:36:07;;;;;;;2.58;1.60;;;;;;;2.91;79.13;94400.31;5009528;28;20034;-62
2021/12/12 06:38:34;;;;;;;2.80;1.50;;;;;;;2.74;78.47;94385.78;5010635;28;20104;-59
2021/12/12 06:41:00;;;;;;;2.05;1.40;;;;;;;2.78;79.09;94408.56;5010736;28;20503;-60
2021/12/12 06:43:26;;;;;;;3.47;1.90;;;;;;;2.89;79.17;94425.03;5010647;28;20074;-59
2021/12/12 06:45:52;;;;;;;3.80;2.03;;;;;;;2.80;79.29;94437.31;5010043;28;20045;-60
2021/12/12 06:48:19;;;;;;;4.78;1.88;;;;;;;2.73;79.90;94446.94;5009407;28;20038;-59
2021/12/12 06:50:49;;;;;;;1.98;1.27;;;;;;;2.74;79.22;94451.16;5010140;28;20532;-58
2021/12/12 06:53:18;;;;;;;3.30;1.90;;;;;;;2.65;78.86;94448.97;5010605;28;20025;-60
2021/12/12 06:55:46;;;;;;;2.10;1.55;;;;;;;2.76;78.86;94446.81;5010435;28;20564;-59
2021/12/12 06:58:14;;;;;;;2.30;1.70;;;;;;;2.86;78.26;94450.63;5009570;28;20096;-60
2021/12/12 07:00:41;;;;;;;2.38;1.60;;;;;;;2.84;78.22;94457.50;5009630;28;20037;-61
2021/12/12 07:03:07;;;;;;;3.50;1.70;;;;;;;2.48;77.78;94417.41;5008770;28;20056;-60
2021/12/12 07:05:34;;;;;;;2.50;1.70;;;;;;;2.76;78.07;94460.38;5010432;28;20026;-60
2021/12/12 07:08:02;;;;;;;2.38;1.73;;;;;;;2.52;77.67;94407.94;5009758;28;20049;-60
2021/12/12 07:10:31;;;;;;;1.90;1.50;;;;;;;2.70;77.86;94449.63;5009905;28;20030;-58
2021/12/12 07:12:59;;;;;;;3.17;1.77;;;;;;;2.64;78.48;94471.06;5009974;28;20113;-62
2021/12/12 07:15:29;;;;;;;3.47;2.38;;;;;;;2.79;79.10;94492.53;5010338;28;20040;-62
2021/12/12 07:17:58;;;;;;;3.03;2.60;;;;;;;2.80;78.92;94506.06;5009456;28;20029;-66
2021/12/12 07:20:24;;;;;;;3.45;1.90;;;;;;;2.33;79.62;94456.22;5009311;28;20030;-62
2021/12/12 07:22:50;;;;;;;3.17;1.80;;;;;;;2.80;79.20;94518.81;5010096;28;20076;-60
2021/12/12 07:25:16;;;;;;;2.50;1.88;;;;;;;2.98;79.20;94519.78;5010124;28;20022;-62
2021/12/12 07:27:42;;;;;;;2.55;1.80;;;;;;;2.96;78.15;94511.38;5009620;28;20120;-60
2021/12/12 07:30:09;;;;;;;3.17;2.03;;;;;;;3.22;78.31;94500.09;5009222;28;20173;-59
2021/12/12 07:32:37;;;;;;;2.50;1.33;;;;;;;3.30;77.20;94526.91;5009257;28;20517;-58
2021/12/12 07:35:07;;;;;;;2.22;1.35;;;;;;;3.00;77.45;94531.56;5008826;28;20029;-60
2021/12/12 07:37:34;;;;;;;1.90;1.67;;;;;;;2.67;78.69;94498.09;5008720;28;20135;-59
2021/12/12 07:39:59;;;;;;;2.15;1.27;;;;;;;2.61;79.25;94546.72;5008797;28;20029;-58
2021/12/12 07:42:25;;;;;;;2.10;1.65;;;;;;;2.55;80.09;94540.97;5009271;28;20469;-62
2021/12/12 07:44:53;;;;;;;3.88;2.85;;;;;;;2.52;80.36;94558.91;5008807;28;20112;-60
2021/12/12 07:47:18;;;;;;;3.03;1.75;;;;;;;2.41;80.66;94558.53;5005822;28;20036;-57
2021/12/12 07:49:47;;;;;;;2.70;1.90;;;;;;;2.30;80.42;94571.66;5009035;28;20033;-61
2021/12/12 07:52:16;;;;;;;1.92;1.58;;;;;;;2.20;81.71;94576.25;5008608;28;20034;-58
2021/12/12 07:54:43;;;;;;;3.45;2.00;;;;;;;2.22;81.63;94581.28;5005305;28;20096;-58
2021/12/12 07:57:09;;;;;;;2.53;1.70;;;;;;;2.28;81.69;94577.66;5008710;28;20030;-59
2021/12/12 07:59:37;;;;;;;2.55;1.80;;;;;;;2.36;80.95;94573.97;5008679;28;20036;-58
2021/12/12 08:02:05;;;;;;;4.80;2.10;;;;;;;2.35;80.20;94579.94;5007683;28;20048;-62
2021/12/12 08:04:32;;;;;;;4.68;2.50;;;;;;;2.40;79.39;94559.41;5009106;28;20026;-60
2021/12/12 08:07:00;;;;;;;3.08;1.90;;;;;;;2.63;78.76;94585.69;5008938;28;20064;-61
2021/12/12 08:09:28;;;;;;;8.48;2.35;;;;;;;2.74;78.55;94586.91;5008679;28;20066;-62
2021/12/12 08:11:55;;;;;;;3.42;2.33;;;;;;;2.72;78.09;94591.25;5004492;28;20037;-69
2021/12/12 08:14:24;;;;;;;3.95;2.38;;;;;;;2.66;77.12;94563.47;5005911;28;20080;-66
2021/12/12 08:16:51;;;;;;;2.72;1.95;;;;;;;2.50;76.54;94555.59;5004863;28;20064;-67
2021/12/12 08:19:17;;;;;;;3.83;2.00;;;;;;;2.91;76.80;94618.53;5006189;28;20065;-66
2021/12/12 08:21:43;;;;;;;3.30;1.98;;;;;;;2.28;76.24;94516.59;5005600;28;20386;-67
2021/12/12 08:24:10;;;;;;;3.10;1.85;;;;;;;2.80;75.08;94601.13;5001010;28;20026;-66
2021/12/12 08:26:40;;;;;;;3.53;2.10;;;;;;;2.86;75.84;94625.53;5005036;28;20104;-67
2021/12/12 08:29:11;;;;;;;4.20;2.25;;;;;;;2.92;75.54;94626.13;5005474;28;20041;-68
2021/12/12 08:31:37;;;;;;;3.30;2.15;;;;;;;2.97;75.20;94637.81;5004870;28;20401;-67
2021/12/12 08:34:05;;;;;;;4.20;3.15;;;;;;;3.02;75.33;94629.13;5001309;28;20022;-67
2021/12/12 08:36:33;;;;;;;3.55;2.47;;;;;;;3.13;74.82;94628.69;5004772;28;20026;-67
2021/12/12 08:38:59;;;;;;;4.00;1.70;;;;;;;2.97;74.03;94610.66;5003316;28;20915;-68
2021/12/12 08:41:25;;;;;;;2.92;1.98;;;;;;;2.89;74.32;94594.84;5003143;28;20099;-68
2021/12/12 08:43:50;;;;;;;3.35;2.00;;;;;;;3.10;74.04;94632.19;5003843;28;20065;-70
2021/12/12 08:46:16;;;;;;;3.20;2.20;;;;;;;3.16;74.11;94630.28;5003992;28;20025;-69
2021/12/12 08:48:46;;;;;;;3.30;2.20;;;;;;;3.10;74.14;94639.84;5001946;28;20044;-68
2021/12/12 08:51:17;;;;;;;2.65;1.63;;;;;;;2.62;72.67;94577.19;5005158;28;20025;-68
2021/12/12 08:53:46;;;;;;;3.35;2.30;;;;;;;2.79;72.70;94593.53;5004941;28;20184;-68
2021/12/12 08:56:19;;;;;;;4.05;2.55;;;;;;;3.19;73.49;94653.91;5004515;28;20042;-70
2021/12/12 08:58:45;;;;;;;4.03;2.35;;;;;;;2.78;72.21;94584.25;5004058;28;20441;-69
2021/12/12 09:01:15;;;;;;;4.47;2.22;;;;;;;3.31;72.08;94661.09;5005103;28;20093;-69
2021/12/12 09:03:53;;;;;;;3.08;2.20;;;;;;;3.09;71.49;94663.66;5004659;28;20033;-71
2021/12/12 09:06:25;;;;;;;3.45;2.40;;;;;;;3.13;72.41;94670.28;5000904;28;20026;-68
2021/12/12 09:08:52;;;;;;;5.05;2.90;;;;;;;3.45;72.37;94700.47;5004141;28;20416;-68
2021/12/12 09:11:37;;;;;;;3.70;2.67;;;;;;;3.05;71.50;94644.28;5000487;28;20030;-68
2021/12/12 09:14:11;;;;;;;3.80;2.65;;;;;;;3.54;72.59;94699.28;5004984;28;20489;-69
2021/12/12 09:16:41;;;;;;;4.10;2.90;;;;;;;3.27;72.28;94666.38;5002804;28;20030;-70
2021/12/12 09:19:15;;;;;;;4.60;3.05;;;;;;;3.66;73.39;94706.44;5004590;28;20038;-69
2021/12/12 09:21:57;;;;;;;3.90;2.70;;;;;;;3.63;73.24;94709.94;5004838;28;20079;-71
2021/12/12 09:24:46;;;;;;;5.22;3.25;;;;;;;3.59;72.72;94713.50;4996992;28;20030;-63
2021/12/12 09:27:30;;;;;;;4.25;2.88;;;;;;;3.61;73.63;94713.44;4997200;28;20476;-61
2021/12/12 09:30:05;;;;;;;4.30;3.17;;;;;;;3.62;72.58;94721.03;5006773;28;20034;-66
2021/12/12 09:32:39;;;;;;;4.78;3.05;;;;;;;3.75;73.50;94723.88;5008180;28;20117;-64
2021/12/12 09:35:10;;;;;;;4.25;2.83;;;;;;;3.98;70.34;94715.28;5007458;28;20073;-63
2021/12/12 09:37:44;;;;;;;;;;;;;;;4.16;71.12;94708.56;5002273;28;20042;-63
2021/12/12 09:40:41;;;;;;;4.40;2.60;;;;;;;3.96;69.82;94727.28;5005744;28;20361;-66
2021/12/12 09:43:43;;;;;;;4.60;3.50;;;;;;;3.93;70.80;94726.59;5007782;28;20030;-69
2021/12/12 09:46:18;;;;;;;6.65;3.90;;;;;;;3.43;72.76;94737.97;5009940;28;20168;-61
2021/12/12 09:52:18;;;;;;;5.63;4.22;;;;;;;3.58;74.70;94744.16;5011630;28;20045;-67
2021/12/12 09:54:54;;;;;;;6.50;3.28;;;;;;;3.36;73.03;94693.19;5011288;28;20026;-68
2021/12/12 09:57:31;;;;;;;4.72;3.83;;;;;;;3.67;72.13;94731.03;5011247;28;20055;-64
2021/12/12 10:00:21;;;;;;;4.60;2.58;;;;;;;3.70;70.96;94741.09;5010380;28;20033;-66
2021/12/12 10:02:49;;;;;;;6.53;2.70;;;;;;;3.76;70.62;94750.25;5011210;28;20049;-68
2021/12/12 10:05:27;;;;;;;4.07;2.65;;;;;;;3.81;69.67;94738.94;5011129;28;20026;-63
2021/12/12 10:08:12;;;;;;;3.90;2.80;;;;;;;3.99;68.28;94751.84;5010722;28;20038;-62
2021/12/12 10:10:47;;;;;;;3.83;2.65;;;;;;;3.74;68.27;94717.16;5010257;28;20062;-68
2021/12/12 10:13:24;;;;;;;3.63;2.63;;;;;;;4.75;66.99;94752.00;5010977;28;20030;-65
2021/12/12 10:16:01;;;;;;;5.70;3.80;;;;;;;4.66;66.41;94739.66;5009406;28;20191;-67
2021/12/12 10:18:43;;;;;;;4.93;3.28;;;;;;;4.30;67.67;94750.56;5010746;28;20101;-62
2021/12/12 10:21:15;;;;;;;6.20;4.28;;;;;;;4.24;69.03;94751.63;5010267;28;20025;-63
2021/12/12 10:23:49;;;;;;;4.53;3.15;;;;;;;4.41;67.13;94753.47;5010106;28;20052;-62
2021/12/12 10:26:20;;;;;;;4.20;3.10;;;;;;;4.18;67.57;94750.19;5010496;28;20119;-63
2021/12/12 10:29:12;;;;;;;4.00;2.47;;;;;;;3.89;68.53;94728.44;5010543;28;20033;-66
2021/12/12 10:31:58;;;;;;;5.38;3.35;;;;;;;3.76;70.04;94748.50;5010181;28;20064;-63
2021/12/12 10:34:33;;;;;;;4.82;3.33;;;;;;;3.27;69.41;94672.28;5010125;28;20025;-63
2021/12/12 10:37:04;;;;;;;7.78;4.03;;;;;;;3.78;70.88;94761.22;5009223;28;20405;-67
2021/12/12 10:39:44;;;;;;;6.40;4.00;;;;;;;3.06;71.43;94689.25;5010539;28;20081;-70
2021/12/12 10:42:19;;;;;;;5.43;2.90;;;;;;;2.57;72.39;94730.13;5010711;28;20604;-72
2021/12/12 10:45:08;;;;;;;3.40;2.40;;;;;;;2.18;74.10;94724.72;5010563;28;20035;-62
2021/12/12 10:47:48;;;;;;;3.10;2.60;;;;;;;2.62;74.80;94793.59;5009957;28;20029;-62
2021/12/12 10:50:23;;;;;;;4.57;3.03;;;;;;;2.43;75.20;94772.22;5009993;28;20060;-63
2021/12/12 10:52:57;;;;;;;7.32;4.75;;;;;;;2.58;76.48;94794.59;5010081;28;20717;-61
2021/12/12 10:55:31;;;;;;;7.70;5.18;;;;;;;2.75;75.94;94786.34;5009915;28;20149;-61
2021/12/12 10:58:14;;;;;;;7.72;5.07;;;;;;;2.90;75.11;94779.88;5010230;28;20030;-60
2021/12/12 11:00:45;;;;;;;8.95;6.15;;;;;;;2.84;75.50;94770.75;5009772;28;20053;-59
2021/12/12 11:03:18;;;;;;;11.75;7.63;;;;;;;2.99;75.09;94782.09;5009717;28;20041;-59
2021/12/12 11:06:33;;;;;;;9.90;5.90;;;;;;;2.84;75.08;94786.03;5010140;28;20025;-61
2021/12/12 11:09:18;;;;;;;7.25;4.70;;;;;;;2.73;74.84;94791.50;4967971;28;20105;-60
2021/12/12 11:11:55;;;;;;;8.63;5.45;;;;;;;2.72;75.28;94794.94;4967612;28;20047;-61
2021/12/12 11:14:33;;;;;;;8.38;5.68;;;;;;;2.29;75.48;94755.72;4967908;28;20057;-63
2021/12/12 11:17:05;;;;;;;9.82;7.45;;;;;;;2.63;76.70;94792.72;4968205;28;20114;-60
2021/12/12 11:19:51;;;;;;;9.13;5.95;;;;;;;2.71;76.76;94797.53;4967947;28;20096;-62
2021/12/12 11:22:34;;;;;;;11.25;8.13;;;;;;;2.66;77.66;94784.16;4967713;28;20415;-62
2021/12/12 11:25:22;;;;;;;13.35;8.18;;;;;;;2.75;77.15;94791.44;4967412;28;20498;-65
2021/12/12 11:28:00;;;;;;;10.23;5.82;;;;;;;2.48;77.29;94804.28;4967692;28;20440;-71
2021/12/12 11:30:32;;;;;;;8.40;5.85;;;;;;;2.33;76.79;94754.75;4967399;28;20484;-64
2021/12/12 11:33:01;;;;;;;8.75;6.28;;;;;;;2.54;76.68;94808.31;4958096;28;20042;-68
2021/12/12 11:35:27;;;;;;;8.80;6.72;;;;;;;2.46;78.42;94810.28;4967186;28;20030;-65
2021/12/12 11:37:55;;;;;;;9.82;6.90;;;;;;;2.45;78.18;94808.66;4967751;28;20062;-68
2021/12/12 11:40:30;;;;;;;12.15;7.63;;;;;;;2.50;78.40;94782.13;4967777;28;20502;-71
2021/12/12 11:43:19;;;;;;;12.15;7.38;;;;;;;2.68;77.96;94795.94;4967354;28;20555;-68
2021/12/12 11:45:57;;;;;;;9.18;6.20;;;;;;;2.68;75.87;94774.75;4984736;28;20052;-64
2021/12/12 11:48:28;;;;;;;9.88;6.55;;;;;;;2.82;76.06;94794.59;5009552;28;20052;-69
2021/12/12 11:51:06;;;;;;;13.45;9.38;;;;;;;2.45;76.24;94755.19;5010232;28;20045;-65
2021/12/12 11:53:55;;;;;;;10.98;7.85;;;;;;;2.68;75.65;94775.56;5008941;28;20022;-67
2021/12/12 11:56:50;;;;;;;15.18;10.35;;;;;;;2.94;75.83;94806.91;5010042;28;20401;-68
2021/12/12 11:59:43;;;;;;;13.55;10.07;;;;;;;3.11;75.62;94803.72;4986918;28;20209;-65
2021/12/12 12:02:32;;;;;;;13.90;9.13;;;;;;;3.00;74.46;94816.00;4987449;28;20030;-66
2021/12/12 12:05:33;;;;;;;20.15;10.30;;;;;;;2.53;74.14;94769.31;4986638;28;20034;-61
2021/12/12 12:08:33;;;;;;;19.20;12.07;;;;;;;2.67;75.54;94801.91;4986345;28;20050;-64
2021/12/12 12:11:29;;;;;;;10.48;7.10;;;;;;;2.58;76.80;94808.16;4966484;28;20085;-61
2021/12/12 12:14:08;;;;;;;9.73;6.95;;;;;;;2.49;76.18;94795.75;4965318;28;20073;-64
2021/12/12 12:16:58;;;;;;;11.93;8.32;;;;;;;2.44;77.39;94820.50;4967138;28;20046;-61
2021/12/12 12:19:42;;;;;;;12.88;9.23;;;;;;;2.44;77.25;94817.97;4967326;28;20042;-66
2021/12/12 12:22:38;;;;;;;15.25;9.93;;;;;;;2.38;77.70;94821.56;4966759;28;20035;-63
2021/12/12 12:25:17;;;;;;;17.58;12.38;;;;;;;2.40;77.31;94808.78;4965219;28;20046;-67